Time;durP1;ratioP1;P1;durP2;ratioP2;P2;SDS_P1;SDS_P2;PMS_P1;PMS_P2;Temp;Humidity;BMP_temperature;BMP_pressure;BME280_temperature;BME280_humidity;BME280_pressure;Samples;Min_cycle;Max_cycle;Signal;HPM_P1;HPM_P2
2022/12/01 00:00:57;;;;;;;3.58;1.15;;;;;;;5.45;92.01;100867.69;5089605;28;20031;-72
2022/12/01 00:03:23;;;;;;;1.50;0.60;;;;;;;5.40;92.35;100869.75;5084566;28;20028;-73
2022/12/01 00:06:03;;;;;;;1.70;0.47;;;;;;;5.37;92.22;100868.19;5091418;28;20088;-72
2022/12/01 00:08:30;;;;;;;2.08;0.50;;;;;;;5.46;92.00;100874.53;5087680;28;20032;-72
2022/12/01 00:11:09;;;;;;;0.98;0.50;;;;;;;5.44;92.01;100872.03;5084144;28;20040;-72
2022/12/01 00:13:35;;;;;;;1.42;0.50;;;;;;;5.37;92.54;100869.97;5087770;28;20032;-72
2022/12/01 00:16:13;;;;;;;1.95;0.63;;;;;;;5.27;93.44;100875.72;5092039;28;20047;-72
2022/12/01 00:18:39;;;;;;;2.17;0.75;;;;;;;5.22;94.10;100876.97;5083461;28;20039;-72
2022/12/01 00:21:05;;;;;;;2.30;0.80;;;;;;;5.17;94.50;100873.88;5085828;28;20028;-72
2022/12/01 00:23:30;;;;;;;1.63;0.68;;;;;;;5.13;94.76;100868.06;5088459;28;20040;-74
2022/12/01 00:26:04;;;;;;;2.58;1.05;;;;;;;5.07;95.14;100865.88;5099902;28;20032;-74
2022/12/01 00:28:30;;;;;;;3.03;1.20;;;;;;;4.99;96.48;100879.28;5086417;28;20024;-74
2022/12/01 00:30:55;;;;;;;3.33;1.30;;;;;;;4.98;96.41;100884.56;5093211;28;20509;-74
2022/12/01 00:33:21;;;;;;;2.22;1.30;;;;;;;4.99;95.54;100874.13;5091017;28;20036;-73
2022/12/01 00:35:46;;;;;;;2.80;1.00;;;;;;;5.10;94.75;100877.78;5087913;28;20027;-73
2022/12/01 00:38:12;;;;;;;1.77;0.80;;;;;;;5.08;95.60;100879.63;5090069;28;20118;-73
2022/12/01 00:40:38;;;;;;;3.65;1.23;;;;;;;5.03;96.76;100873.94;5088711;28;20735;-73
2022/12/01 00:43:03;;;;;;;2.60;1.02;;;;;;;4.99;97.54;100881.03;5090499;28;20032;-73
2022/12/01 00:45:28;;;;;;;1.70;0.90;;;;;;;4.96;97.83;100881.25;5089079;28;20046;-73
2022/12/01 00:47:54;;;;;;;2.22;0.90;;;;;;;4.92;97.78;100882.38;5087431;28;20391;-73
2022/12/01 00:50:19;;;;;;;2.22;1.25;;;;;;;4.93;98.55;100887.44;5087609;28;20133;-73
2022/12/01 00:52:45;;;;;;;3.25;0.90;;;;;;;4.92;98.63;100887.53;5067958;28;20138;-73
2022/12/01 00:55:10;;;;;;;2.13;0.70;;;;;;;4.88;99.41;100879.16;5090253;28;20038;-73
2022/12/01 00:57:35;;;;;;;1.98;0.70;;;;;;;4.84;99.63;100888.00;5087889;28;20047;-73
2022/12/01 01:00:01;;;;;;;3.33;1.05;;;;;;;4.78;100.00;100888.41;5089501;28;20090;-73
2022/12/01 01:02:27;;;;;;;1.52;0.73;;;;;;;4.74;99.77;100880.94;5086053;28;20058;-73
2022/12/01 01:04:52;;;;;;;2.45;1.05;;;;;;;4.74;100.00;100874.03;5088821;28;20062;-73
2022/12/01 01:07:18;;;;;;;4.60;1.30;;;;;;;4.71;100.00;100876.84;5086843;28;20024;-73
2022/12/01 01:10:40;;;;;;;2.92;1.00;;;;;;;4.65;100.00;100870.31;5089447;28;20059;-73
2022/12/01 01:13:06;;;;;;;2.08;0.90;;;;;;;4.59;100.00;100880.19;5093031;28;20040;-73
2022/12/01 01:15:31;;;;;;;2.95;0.98;;;;;;;4.63;100.00;100876.47;5090604;28;20039;-74
2022/12/01 01:17:56;;;;;;;2.08;0.45;;;;;;;4.69;100.00;100873.50;5095328;28;20035;-74
2022/12/01 01:20:22;;;;;;;1.67;0.55;;;;;;;4.70;99.91;100871.75;5087215;28;20078;-74
2022/12/01 01:22:47;;;;;;;1.02;0.40;;;;;;;4.63;99.67;100873.91;5086133;28;20028;-73
2022/12/01 01:25:13;;;;;;;1.73;0.60;;;;;;;4.58;100.00;100876.75;5083112;28;20047;-73
2022/12/01 01:27:38;;;;;;;2.25;0.60;;;;;;;4.51;100.00;100877.25;5084270;28;20025;-73
2022/12/01 01:30:04;;;;;;;2.00;0.98;;;;;;;4.47;100.00;100868.84;5094519;28;20443;-73
2022/12/01 01:32:30;;;;;;;1.95;0.50;;;;;;;4.43;100.00;100869.16;5085388;28;20166;-73
2022/12/01 01:34:55;;;;;;;2.50;0.55;;;;;;;4.34;100.00;100857.63;5087526;28;20181;-73
2022/12/01 01:37:20;;;;;;;1.23;0.45;;;;;;;4.28;100.00;100861.41;5081838;28;20032;-73
2022/12/01 01:39:46;;;;;;;2.15;0.68;;;;;;;4.30;100.00;100851.00;5088078;28;20420;-73
2022/12/01 01:42:13;;;;;;;1.10;0.40;;;;;;;4.26;100.00;100855.53;5089050;28;20801;-74
2022/12/01 01:44:49;;;;;;;2.55;0.45;;;;;;;4.20;100.00;100850.78;5088767;28;20039;-73
2022/12/01 01:47:16;;;;;;;;;;;;;;;4.15;100.00;100851.97;5086510;28;20047;-73
2022/12/01 01:49:42;;;;;;;1.15;0.40;;;;;;;4.14;100.00;100846.00;5087669;28;19916;-73
2022/12/01 01:52:08;;;;;;;1.65;0.52;;;;;;;4.12;100.00;100842.69;5088516;28;20058;-73
2022/12/01 01:54:40;;;;;;;2.20;0.40;;;;;;;4.13;100.00;100857.22;5088188;28;20472;-73
2022/12/01 01:57:08;;;;;;;2.03;0.50;;;;;;;4.18;100.00;100852.63;5085455;28;20032;-73
2022/12/01 01:59:40;;;;;;;1.58;0.40;;;;;;;4.21;100.00;100846.44;5087632;28;20038;-73
2022/12/01 02:02:07;;;;;;;0.68;0.20;;;;;;;4.22;100.00;100838.63;5082066;28;20024;-74
2022/12/01 02:04:40;;;;;;;1.02;0.20;;;;;;;4.28;100.00;100845.13;5084509;28;20177;-73
2022/12/01 02:07:07;;;;;;;0.50;0.20;;;;;;;4.38;100.00;100847.97;5084869;28;20109;-73
2022/12/01 02:09:34;;;;;;;2.47;0.20;;;;;;;4.55;100.00;100852.91;5088228;28;20104;-73
2022/12/01 02:12:24;;;;;;;0.68;0.20;;;;;;;4.58;100.00;100848.38;5088961;28;20028;-73
2022/12/01 02:15:11;;;;;;;0.63;0.30;;;;;;;4.58;100.00;100850.97;5091396;28;20030;-73
2022/12/01 02:17:43;;;;;;;0.90;0.28;;;;;;;4.55;100.00;100833.09;5085561;28;20024;-73
2022/12/01 02:20:24;;;;;;;1.17;0.25;;;;;;;4.51;100.00;100834.19;5075516;28;20039;-74
2022/12/01 02:23:07;;;;;;;0.82;0.30;;;;;;;4.42;100.00;100846.84;5092570;28;20383;-73
2022/12/01 02:26:10;;;;;;;0.77;0.30;;;;;;;4.45;100.00;100841.50;5096726;28;20076;-73
2022/12/01 02:28:58;;;;;;;0.63;0.25;;;;;;;4.61;99.59;100835.28;5097885;28;20489;-73
2022/12/01 02:31:51;;;;;;;2.42;0.20;;;;;;;4.63;99.87;100837.75;5108936;28;20112;-74
2022/12/01 02:34:16;;;;;;;0.50;0.20;;;;;;;4.56;100.00;100836.50;5081142;28;20043;-75
2022/12/01 02:36:57;;;;;;;0.80;0.30;;;;;;;4.48;100.00;100838.72;5091860;28;20032;-73
2022/12/01 02:39:32;;;;;;;0.50;0.15;;;;;;;4.45;100.00;100839.75;5088321;28;20063;-73
2022/12/01 02:42:08;;;;;;;0.77;0.30;;;;;;;4.41;100.00;100821.97;5092341;28;20040;-73
2022/12/01 02:44:39;;;;;;;0.77;0.20;;;;;;;4.38;100.00;100827.31;5091977;28;20034;-73
2022/12/01 02:47:15;;;;;;;0.80;0.32;;;;;;;4.29;100.00;100834.72;5091289;28;20032;-73
2022/12/01 02:49:46;;;;;;;0.80;0.20;;;;;;;4.28;100.00;100822.72;5092044;28;20024;-73
2022/12/01 02:52:14;;;;;;;0.57;0.20;;;;;;;4.29;100.00;100818.41;5092011;28;20043;-74
2022/12/01 02:54:42;;;;;;;0.20;0.10;;;;;;;4.33;100.00;100809.56;5085028;28;20070;-73
2022/12/01 02:57:12;;;;;;;0.65;0.10;;;;;;;4.41;100.00;100827.97;5090728;28;20109;-73
2022/12/01 02:59:41;;;;;;;0.55;0.15;;;;;;;4.43;100.00;100818.38;5087995;28;20035;-73
2022/12/01 03:02:32;;;;;;;0.68;0.20;;;;;;;4.39;100.00;100816.06;5087330;28;20485;-73
2022/12/01 03:05:12;;;;;;;0.93;0.10;;;;;;;4.31;100.00;100814.81;5090951;28;20059;-74
2022/12/01 03:07:59;;;;;;;0.50;0.10;;;;;;;4.36;100.00;100811.09;5087749;28;20462;-73
2022/12/01 03:10:36;;;;;;;0.20;0.00;;;;;;;4.94;95.36;100803.88;5090228;28;20390;-72
2022/12/01 03:13:13;;;;;;;0.30;0.10;;;;;;;5.22;93.40;100809.78;5089936;28;20036;-73
2022/12/01 03:15:48;;;;;;;0.38;0.10;;;;;;;5.07;94.76;100800.50;5091589;28;20028;-73
2022/12/01 03:18:26;;;;;;;0.50;0.13;;;;;;;4.84;97.04;100801.97;5095353;28;20578;-73
2022/12/01 03:21:12;;;;;;;0.30;0.10;;;;;;;4.65;98.20;100792.88;5086587;28;20032;-73
2022/12/01 03:23:41;;;;;;;;;;;;;;;4.55;96.53;100793.56;5082671;28;20040;-73
2022/12/01 03:26:10;;;;;;;0.73;0.10;;;;;;;4.58;97.79;100791.59;5091158;28;19961;-73
2022/12/01 03:28:43;;;;;;;0.47;0.10;;;;;;;4.66;97.10;100780.78;5092332;28;20031;-73
2022/12/01 03:31:16;;;;;;;0.20;0.00;;;;;;;4.83;95.19;100775.34;5094009;28;20036;-74
2022/12/01 03:33:52;;;;;;;0.10;0.00;;;;;;;5.67;89.54;100777.44;5085328;28;20055;-73
2022/12/01 03:36:43;;;;;;;0.20;0.00;;;;;;;5.52;89.94;100776.72;5090186;28;20506;-73
2022/12/01 03:39:15;;;;;;;1.17;0.00;;;;;;;5.20;92.78;100783.25;5085185;28;20506;-73
2022/12/01 03:41:45;;;;;;;0.10;0.00;;;;;;;4.99;93.72;100778.56;5091889;28;20063;-73
2022/12/01 03:44:19;;;;;;;0.38;0.00;;;;;;;4.88;94.25;100770.72;5091150;28;20047;-73
2022/12/01 03:46:52;;;;;;;0.05;0.00;;;;;;;5.00;93.20;100772.50;5091304;28;20399;-73
2022/12/01 03:49:20;;;;;;;2.33;0.00;;;;;;;5.16;92.71;100763.72;5090346;28;20114;-73
2022/12/01 03:51:58;;;;;;;0.75;0.10;;;;;;;5.14;92.29;100768.16;5086271;28;20044;-73
2022/12/01 03:54:43;;;;;;;0.38;0.10;;;;;;;4.93;92.48;100771.22;5086138;28;20044;-73
2022/12/01 03:57:13;;;;;;;0.20;0.00;;;;;;;4.82;94.20;100770.28;5087739;28;20024;-72
2022/12/01 03:59:41;;;;;;;0.20;0.00;;;;;;;4.64;95.49;100773.16;5090301;28;20032;-73
2022/12/01 04:02:07;;;;;;;0.20;0.00;;;;;;;4.59;95.85;100776.94;5090499;28;20035;-73
2022/12/01 04:04:33;;;;;;;0.10;0.00;;;;;;;4.71;94.91;100776.16;5090144;28;20024;-73
2022/12/01 04:06:58;;;;;;;0.20;0.00;;;;;;;4.62;95.42;100785.31;5090523;28;20031;-73
2022/12/01 04:09:23;;;;;;;0.25;0.00;;;;;;;4.47;96.56;100767.41;5086960;28;20379;-73
2022/12/01 04:14:33;;;;;;;0.30;0.00;;;;;;;4.66;95.01;100770.47;5090489;28;20043;-73
2022/12/01 04:16:58;;;;;;;0.20;0.10;;;;;;;5.21;91.14;100765.03;5090459;28;20504;-73
2022/12/01 04:19:24;;;;;;;0.47;0.00;;;;;;;5.54;88.62;100761.94;5086305;28;20547;-74
2022/12/01 04:21:49;;;;;;;0.20;0.00;;;;;;;5.55;88.67;100768.78;5089800;28;20153;-73
2022/12/01 04:24:15;;;;;;;0.20;0.00;;;;;;;5.44;89.44;100770.44;5087884;28;20151;-73
2022/12/01 04:26:41;;;;;;;0.20;0.00;;;;;;;5.30;89.78;100766.19;5090666;28;20052;-73
2022/12/01 04:29:09;;;;;;;0.00;0.00;;;;;;;5.37;88.92;100761.44;5089444;28;20047;-73
2022/12/01 04:31:34;;;;;;;1.98;0.10;;;;;;;5.40;89.12;100771.56;5085516;28;20444;-74
2022/12/01 04:34:00;;;;;;;0.22;0.10;;;;;;;5.28;90.25;100770.63;5088119;28;20052;-73
2022/12/01 04:36:28;;;;;;;0.40;0.10;;;;;;;5.14;90.80;100778.50;5089904;28;20455;-73
2022/12/01 04:38:53;;;;;;;0.22;0.10;;;;;;;5.02;91.37;100774.97;5087243;28;20040;-73
2022/12/01 04:41:19;;;;;;;0.68;0.20;;;;;;;4.90;92.83;100765.44;5088381;28;20028;-74
2022/12/01 04:43:44;;;;;;;1.88;0.88;;;;;;;4.79;93.16;100791.13;5099717;28;20023;-73
2022/12/01 04:46:10;;;;;;;0.30;0.10;;;;;;;5.23;89.04;100775.28;5100880;28;20031;-73
2022/12/01 04:48:37;;;;;;;0.10;0.00;;;;;;;6.19;83.50;100760.88;5092616;28;20050;-73
2022/12/01 04:51:04;;;;;;;0.00;0.00;;;;;;;6.24;83.17;100767.38;5095008;28;20059;-73
2022/12/01 04:53:30;;;;;;;0.10;0.00;;;;;;;5.95;85.15;100771.22;5088965;28;20029;-73
2022/12/01 04:55:57;;;;;;;0.20;0.10;;;;;;;5.59;87.11;100762.47;5061788;28;20040;-73
2022/12/01 04:58:23;;;;;;;0.20;0.10;;;;;;;5.32;89.05;100779.84;5086228;28;20495;-73
2022/12/01 05:00:48;;;;;;;0.30;0.10;;;;;;;5.12;90.66;100788.09;5093567;28;20045;-73
2022/12/01 05:03:14;;;;;;;0.00;0.00;;;;;;;5.38;89.04;100773.44;5089333;28;20051;-73
2022/12/01 05:05:39;;;;;;;0.20;0.10;;;;;;;5.82;85.98;100776.38;5095908;28;20441;-73
2022/12/01 05:08:05;;;;;;;0.20;0.10;;;;;;;5.77;86.60;100770.69;5092853;28;20471;-73
2022/12/01 05:10:30;;;;;;;0.40;0.10;;;;;;;5.61;87.41;100776.13;5092463;28;20038;-73
2022/12/01 05:12:57;;;;;;;0.73;0.08;;;;;;;5.42;88.28;100773.13;5087539;28;20363;-73
2022/12/01 05:15:23;;;;;;;0.80;0.40;;;;;;;5.17;90.32;100776.53;5087634;28;20024;-73
2022/12/01 05:17:48;;;;;;;13.25;2.80;;;;;;;4.96;91.70;100785.69;5094648;28;20070;-73
2022/12/01 05:23:03;;;;;;;0.55;0.20;;;;;;;4.73;92.96;100786.34;5086203;28;20039;-74
2022/12/01 05:25:29;;;;;;;0.80;0.30;;;;;;;4.57;94.33;100776.22;5079350;28;20048;-73
2022/12/01 05:27:55;;;;;;;0.30;0.10;;;;;;;4.48;95.12;100792.28;5087279;28;20032;-73
2022/12/01 05:30:20;;;;;;;0.20;0.10;;;;;;;4.67;93.98;100797.94;5086297;28;20047;-74
2022/12/01 05:32:46;;;;;;;0.68;0.10;;;;;;;4.77;93.44;100806.72;5086051;28;20406;-73
2022/12/01 05:35:11;;;;;;;0.20;0.10;;;;;;;4.96;91.67;100809.75;5090202;28;20126;-73
2022/12/01 05:37:37;;;;;;;0.20;0.10;;;;;;;4.90;92.13;100811.91;5070190;28;20174;-73
2022/12/01 05:40:03;;;;;;;0.15;0.00;;;;;;;4.84;92.06;100813.13;5089683;28;20071;-73
2022/12/01 05:42:28;;;;;;;0.95;0.20;;;;;;;4.68;92.99;100804.75;5089180;28;20123;-72
2022/12/01 05:44:54;;;;;;;1.65;0.50;;;;;;;4.52;93.86;100815.22;5091143;28;20027;-74
2022/12/01 05:47:19;;;;;;;0.50;0.10;;;;;;;4.33;95.50;100810.38;5088120;28;20032;-73
2022/12/01 05:49:44;;;;;;;0.47;0.20;;;;;;;4.21;96.17;100821.47;5087299;28;20483;-73
2022/12/01 05:52:10;;;;;;;2.40;0.90;;;;;;;4.16;97.42;100818.34;5085511;28;20127;-73
2022/12/01 05:54:35;;;;;;;0.88;0.40;;;;;;;4.09;97.30;100806.75;5090157;28;20047;-72
2022/12/01 05:57:01;;;;;;;1.20;0.68;;;;;;;3.94;97.87;100811.09;5087053;28;20533;-73
2022/12/01 05:59:27;;;;;;;1.63;0.90;;;;;;;3.83;99.09;100802.34;5076081;28;20032;-73
2022/12/01 06:01:52;;;;;;;4.28;1.10;;;;;;;3.81;99.45;100806.78;5085484;28;20448;-73
2022/12/01 06:04:18;;;;;;;1.38;0.10;;;;;;;4.22;96.67;100802.50;5084239;28;20039;-73
2022/12/01 06:06:43;;;;;;;1.55;0.30;;;;;;;4.58;95.06;100798.53;5088808;28;20476;-73
2022/12/01 06:09:09;;;;;;;2.25;0.75;;;;;;;4.51;95.05;100798.06;5083745;28;20028;-73
2022/12/01 06:11:34;;;;;;;9.73;2.85;;;;;;;4.33;95.47;100802.63;5082491;28;20101;-73
2022/12/01 06:14:00;;;;;;;5.00;2.00;;;;;;;4.20;96.29;100806.09;5093665;28;20026;-74
2022/12/01 06:16:25;;;;;;;7.50;3.10;;;;;;;4.14;97.03;100798.75;5093795;28;20036;-73
2022/12/01 06:18:51;;;;;;;3.80;1.73;;;;;;;4.00;98.76;100807.31;5094108;28;20078;-73
2022/12/01 06:21:16;;;;;;;7.28;1.55;;;;;;;3.97;98.26;100802.34;5086982;28;20052;-73
2022/12/01 06:23:42;;;;;;;8.57;2.90;;;;;;;3.86;98.63;100797.84;5090812;28;20055;-73
2022/12/01 06:26:07;;;;;;;9.65;4.18;;;;;;;3.87;99.79;100804.66;5088854;28;20102;-73
2022/12/01 06:28:32;;;;;;;5.35;1.92;;;;;;;4.05;99.01;100814.78;5094025;28;20413;-73
2022/12/01 06:30:58;;;;;;;5.90;1.50;;;;;;;4.14;98.19;100809.06;5092385;28;20051;-72
2022/12/01 06:33:23;;;;;;;4.57;1.90;;;;;;;4.06;98.12;100799.22;5096973;28;20467;-73
2022/12/01 06:35:59;;;;;;;3.85;2.05;;;;;;;3.94;99.03;100800.78;5094921;28;20597;-73
2022/12/01 06:38:25;;;;;;;2.97;0.98;;;;;;;3.96;98.64;100800.69;5093396;28;20115;-73
2022/12/01 06:40:51;;;;;;;26.70;11.32;;;;;;;3.88;99.81;100811.47;5092228;28;20058;-73
2022/12/01 06:43:16;;;;;;;10.30;4.22;;;;;;;3.86;99.89;100797.03;5095025;28;20471;-73
2022/12/01 06:45:42;;;;;;;8.55;1.67;;;;;;;3.85;100.00;100797.94;5072109;28;20060;-73
2022/12/01 06:48:08;;;;;;;3.10;0.95;;;;;;;3.98;99.30;100804.00;5087351;28;20064;-73
2022/12/01 06:50:33;;;;;;;9.85;3.88;;;;;;;4.17;98.11;100803.72;5090828;28;20031;-73
2022/12/01 06:52:58;;;;;;;2.47;0.70;;;;;;;4.83;93.09;100814.06;5086851;28;20523;-73
2022/12/01 06:55:24;;;;;;;4.05;1.08;;;;;;;4.74;93.62;100809.50;5084851;28;20036;-72
2022/12/01 06:57:49;;;;;;;4.93;0.30;;;;;;;5.05;91.17;100812.69;5087941;28;20440;-73
2022/12/01 07:00:16;;;;;;;2.33;0.75;;;;;;;5.20;90.67;100816.84;5087343;28;20036;-73
2022/12/01 07:02:41;;;;;;;5.10;1.15;;;;;;;5.19;90.37;100823.75;5088618;28;20475;-73
2022/12/01 07:05:07;;;;;;;4.47;0.80;;;;;;;5.06;92.01;100824.66;5095489;28;20044;-73
2022/12/01 07:07:38;;;;;;;5.40;1.92;;;;;;;4.90;93.53;100810.16;5093256;28;20431;-73
2022/12/01 07:10:04;;;;;;;4.45;1.70;;;;;;;4.78;93.55;100815.28;5095558;28;20031;-73
2022/12/01 07:12:30;;;;;;;4.13;0.70;;;;;;;4.99;92.83;100819.91;5089828;28;20036;-73
2022/12/01 07:14:56;;;;;;;4.25;0.30;;;;;;;5.91;86.97;100808.56;5096485;28;20052;-73
2022/12/01 07:17:22;;;;;;;0.50;0.10;;;;;;;6.63;81.31;100805.09;5091387;28;20443;-72
2022/12/01 07:19:48;;;;;;;0.25;0.00;;;;;;;7.37;74.72;100821.22;5093617;28;20123;-73
2022/12/01 07:22:13;;;;;;;0.20;0.08;;;;;;;7.73;72.43;100814.19;5086473;28;20128;-73
2022/12/01 07:24:39;;;;;;;1.30;0.10;;;;;;;7.88;73.09;100819.03;5092765;28;20495;-74
2022/12/01 07:27:04;;;;;;;1.00;0.10;;;;;;;7.52;75.77;100827.03;5092718;28;20119;-74
2022/12/01 07:29:29;;;;;;;0.65;0.20;;;;;;;7.20;78.10;100824.25;5083952;28;20089;-74
2022/12/01 07:31:55;;;;;;;0.95;0.25;;;;;;;6.92;80.49;100828.88;5095421;28;20040;-73
2022/12/01 07:34:20;;;;;;;1.02;0.25;;;;;;;6.73;82.16;100836.34;5089163;28;20067;-74
2022/12/01 07:36:46;;;;;;;1.50;0.10;;;;;;;6.63;83.43;100832.75;5089003;28;20099;-74
2022/12/01 07:39:11;;;;;;;4.53;0.30;;;;;;;6.52;84.85;100825.78;5094111;28;20032;-74
2022/12/01 07:41:37;;;;;;;1.08;0.30;;;;;;;6.46;85.49;100830.56;5092244;28;20043;-75
2022/12/01 07:44:02;;;;;;;0.80;0.20;;;;;;;6.48;85.38;100839.03;5090685;28;20383;-74
2022/12/01 07:46:28;;;;;;;1.42;0.52;;;;;;;6.49;85.85;100838.09;5089273;28;20506;-75
2022/12/01 07:48:54;;;;;;;2.03;0.30;;;;;;;6.54;84.46;100843.78;5097089;28;20039;-76
2022/12/01 07:51:22;;;;;;;1.90;0.47;;;;;;;6.65;83.85;100847.22;5090050;28;20032;-76
2022/12/01 07:53:49;;;;;;;2.42;0.32;;;;;;;6.59;84.83;100844.28;5090661;28;20410;-75
2022/12/01 07:56:15;;;;;;;11.23;0.70;;;;;;;6.54;85.52;100839.44;5089984;28;20458;-76
2022/12/01 07:58:41;;;;;;;3.03;0.30;;;;;;;6.53;85.78;100844.72;5090369;28;20480;-75
2022/12/01 08:01:12;;;;;;;4.18;0.50;;;;;;;6.61;85.37;100845.00;5089515;28;20132;-76
2022/12/01 08:03:38;;;;;;;0.93;0.30;;;;;;;6.75;84.78;100831.88;5088004;28;20028;-75
2022/12/01 08:06:04;;;;;;;3.55;0.30;;;;;;;6.72;85.61;100837.28;5088946;28;20028;-75
2022/12/01 08:08:32;;;;;;;12.55;4.68;;;;;;;6.67;85.70;100849.72;5091598;28;20140;-75
2022/12/01 08:11:04;;;;;;;10.82;3.60;;;;;;;6.68;85.80;100832.41;5090352;28;20031;-75
2022/12/01 08:13:30;;;;;;;9.77;2.72;;;;;;;6.64;85.91;100837.81;5089189;28;20036;-76
2022/12/01 08:15:56;;;;;;;0.10;0.00;;;;;;;7.55;76.61;100832.81;5072423;28;20070;-74
2022/12/01 08:18:22;;;;;;;0.10;0.00;;;;;;;8.11;71.26;100829.38;5090796;28;20137;-74
2022/12/01 08:20:48;;;;;;;0.10;0.00;;;;;;;8.42;70.49;100826.06;5090539;28;20556;-76
2022/12/01 08:23:14;;;;;;;2.40;0.30;;;;;;;8.33;72.50;100831.97;5089304;28;20105;-76
2022/12/01 08:25:39;;;;;;;3.08;1.50;;;;;;;7.98;75.60;100847.69;5094104;28;20106;-75
2022/12/01 08:28:05;;;;;;;1.52;0.30;;;;;;;7.70;76.15;100843.78;5090773;28;20464;-74
2022/12/01 08:30:30;;;;;;;0.90;0.20;;;;;;;7.82;75.87;100835.06;5090458;28;20032;-75
2022/12/01 08:32:56;;;;;;;0.80;0.20;;;;;;;7.81;75.97;100837.78;5097034;28;20438;-76
2022/12/01 08:35:23;;;;;;;0.52;0.00;;;;;;;8.25;68.65;100839.50;5089963;28;20024;-74
2022/12/01 08:37:51;;;;;;;0.17;0.00;;;;;;;8.57;68.61;100835.19;5086843;28;20114;-73
2022/12/01 08:40:17;;;;;;;0.95;0.00;;;;;;;8.73;66.97;100836.56;5089557;28;20054;-74
2022/12/01 08:42:42;;;;;;;0.35;0.00;;;;;;;8.60;68.63;100828.94;5089706;28;20028;-74
2022/12/01 08:45:08;;;;;;;2.45;0.20;;;;;;;8.73;66.19;100837.41;5089001;28;20039;-74
2022/12/01 08:47:34;;;;;;;1.10;0.10;;;;;;;8.80;66.69;100832.53;5090228;28;20440;-73
2022/12/01 08:49:59;;;;;;;0.65;0.10;;;;;;;8.83;66.95;100833.13;5090142;28;20036;-74
2022/12/01 08:52:25;;;;;;;3.22;0.30;;;;;;;8.61;69.91;100843.56;5089141;28;20116;-74
2022/12/01 08:54:50;;;;;;;2.10;0.35;;;;;;;8.37;72.53;100837.75;5089076;28;20493;-74
2022/12/01 08:57:16;;;;;;;4.00;0.88;;;;;;;8.10;74.89;100846.72;5088962;28;20043;-73
2022/12/01 08:59:43;;;;;;;9.20;1.63;;;;;;;7.92;77.19;100848.16;5073897;28;20016;-74
2022/12/01 09:02:14;;;;;;;3.90;0.75;;;;;;;7.74;78.66;100841.78;5089791;28;20123;-74
2022/12/01 09:04:40;;;;;;;4.28;1.00;;;;;;;7.62;79.67;100836.56;5084570;28;20024;-74
2022/12/01 09:07:09;;;;;;;5.68;0.90;;;;;;;7.54;80.65;100853.69;5088356;28;20444;-74
2022/12/01 09:09:35;;;;;;;7.22;1.00;;;;;;;7.51;81.65;100851.31;5083965;28;20426;-75
2022/12/01 09:12:01;;;;;;;3.58;0.60;;;;;;;7.47;81.94;100853.31;5086387;28;20031;-74
2022/12/01 09:14:27;;;;;;;1.63;0.50;;;;;;;7.46;82.19;100859.44;5085731;28;20395;-74
2022/12/01 09:16:52;;;;;;;1.60;0.30;;;;;;;7.46;82.14;100849.06;5094311;28;20037;-73
2022/12/01 09:19:18;;;;;;;1.42;0.30;;;;;;;7.47;82.37;100845.53;5087124;28;20467;-73
2022/12/01 09:21:44;;;;;;;1.50;0.30;;;;;;;7.51;82.36;100846.94;5085593;28;20028;-73
2022/12/01 09:24:12;;;;;;;1.67;0.20;;;;;;;7.53;82.02;100859.81;5088300;28;20047;-74
2022/12/01 09:26:38;;;;;;;3.53;0.22;;;;;;;7.69;80.09;100856.84;5081860;28;20122;-73
2022/12/01 09:29:06;;;;;;;3.03;0.25;;;;;;;7.81;79.86;100855.94;5096971;28;20031;-73
2022/12/01 09:31:32;;;;;;;0.30;0.10;;;;;;;7.72;80.42;100864.41;5088750;28;20518;-73
2022/12/01 09:34:02;;;;;;;0.32;0.10;;;;;;;7.61;80.75;100858.25;5089862;28;20035;-73
2022/12/01 09:36:29;;;;;;;1.40;0.10;;;;;;;7.57;80.50;100856.00;5088861;28;20032;-73
2022/12/01 09:38:55;;;;;;;0.30;0.00;;;;;;;7.58;80.70;100857.66;5089666;28;20027;-72
2022/12/01 09:41:32;;;;;;;1.63;0.20;;;;;;;7.62;80.23;100851.31;5088381;28;20036;-73
2022/12/01 09:44:12;;;;;;;1.05;0.10;;;;;;;7.70;80.47;100840.34;5088866;28;20066;-73
2022/12/01 09:47:17;;;;;;;6.22;0.30;;;;;;;7.72;80.56;100843.66;5088879;28;20070;-75
2022/12/01 09:49:57;;;;;;;0.30;0.10;;;;;;;7.73;80.55;100845.31;5085691;28;20032;-74
2022/12/01 09:52:26;;;;;;;2.75;0.10;;;;;;;7.75;80.09;100840.81;5088786;28;20481;-74
2022/12/01 09:54:54;;;;;;;0.85;0.05;;;;;;;7.86;79.70;100831.28;5089852;28;20506;-74
2022/12/01 09:57:35;;;;;;;0.85;0.10;;;;;;;8.25;77.05;100822.16;5096853;28;20412;-73
2022/12/01 10:00:05;;;;;;;0.28;0.00;;;;;;;8.70;72.95;100819.47;5085771;28;20028;-74
2022/12/01 10:02:47;;;;;;;0.55;0.10;;;;;;;8.81;71.25;100824.63;5088825;28;20021;-75
2022/12/01 10:05:20;;;;;;;0.20;0.10;;;;;;;8.71;73.16;100831.50;5086296;28;20028;-75
2022/12/01 10:07:52;;;;;;;1.48;0.00;;;;;;;9.12;65.50;100828.13;5091147;28;20141;-73
2022/12/01 10:10:34;;;;;;;4.03;0.22;;;;;;;9.35;65.89;100815.00;5089879;28;20047;-74
2022/12/01 10:13:00;;;;;;;0.20;0.10;;;;;;;9.28;66.47;100825.09;5086502;28;20566;-75
2022/12/01 10:16:09;;;;;;;0.40;0.10;;;;;;;9.19;67.51;100823.25;5092442;28;20170;-74
2022/12/01 10:18:40;;;;;;;1.17;0.10;;;;;;;8.94;70.58;100820.09;5084568;28;20063;-73
2022/12/01 10:21:45;;;;;;;0.38;0.10;;;;;;;8.72;71.72;100832.34;5090678;28;20031;-74
2022/12/01 10:24:29;;;;;;;0.20;0.10;;;;;;;8.73;73.11;100811.41;5087959;28;20056;-74
2022/12/01 10:27:20;;;;;;;0.45;0.10;;;;;;;8.63;73.30;100805.31;5092861;28;20078;-73
2022/12/01 10:30:02;;;;;;;0.30;0.10;;;;;;;8.73;72.69;100806.22;5089842;28;20533;-74
2022/12/01 10:32:51;;;;;;;3.22;0.10;;;;;;;8.90;72.64;100818.69;5094369;28;20036;-73
2022/12/01 10:35:23;;;;;;;0.57;0.25;;;;;;;8.91;73.40;100820.34;5089227;28;20056;-73
2022/12/01 10:37:56;;;;;;;1.50;0.00;;;;;;;8.78;73.71;100818.84;5090071;28;20020;-72
2022/12/01 10:40:22;;;;;;;0.60;0.20;;;;;;;8.71;73.74;100807.31;5095932;28;20028;-74
2022/12/01 10:42:49;;;;;;;1.02;0.00;;;;;;;8.68;73.19;100804.94;5092952;28;20534;-74
2022/12/01 10:45:30;;;;;;;2.47;0.10;;;;;;;9.01;68.22;100798.75;5090905;28;20508;-74
2022/12/01 10:48:14;;;;;;;0.30;0.10;;;;;;;9.23;64.93;100786.47;5071206;28;20039;-72
2022/12/01 10:50:42;;;;;;;0.13;0.00;;;;;;;9.32;66.60;100782.28;5088906;28;20067;-73
2022/12/01 10:53:29;;;;;;;0.47;0.00;;;;;;;9.21;67.03;100777.97;5097806;28;20123;-73
2022/12/01 10:56:13;;;;;;;0.22;0.10;;;;;;;9.10;68.55;100790.22;5095739;28;20040;-74
2022/12/01 10:58:52;;;;;;;1.75;0.10;;;;;;;9.02;70.84;100793.44;5088255;28;20433;-73
2022/12/01 11:01:30;;;;;;;1.10;0.20;;;;;;;8.87;72.21;100797.31;5092732;28;20028;-72
2022/12/01 11:04:00;;;;;;;0.20;0.10;;;;;;;8.75;73.84;100791.34;5081074;28;20032;-73
2022/12/01 11:06:28;;;;;;;0.50;0.10;;;;;;;8.69;74.77;100789.25;5092018;28;20396;-74
2022/12/01 11:09:15;;;;;;;3.50;0.20;;;;;;;8.63;74.75;100789.72;5097195;28;20028;-73
2022/12/01 11:11:40;;;;;;;;;;;;;;;8.53;74.47;100794.84;5085439;28;20040;-73
2022/12/01 11:14:22;;;;;;;0.60;0.20;;;;;;;8.44;75.98;100798.19;5090575;28;19920;-74
2022/12/01 11:16:50;;;;;;;1.55;0.20;;;;;;;8.42;77.65;100796.66;5096264;28;20023;-73
2022/12/01 11:19:30;;;;;;;1.00;0.13;;;;;;;8.35;78.81;100787.72;5093928;28;20046;-72
2022/12/01 11:22:01;;;;;;;0.30;0.10;;;;;;;8.28;79.73;100798.56;5086448;28;20062;-73
2022/12/01 11:24:35;;;;;;;1.35;0.20;;;;;;;8.32;79.66;100799.13;5085609;28;20071;-73
2022/12/01 11:27:01;;;;;;;0.63;0.25;;;;;;;8.41;79.35;100800.22;5085930;28;20039;-73
2022/12/01 11:29:36;;;;;;;0.70;0.30;;;;;;;8.50;78.65;100799.47;5069564;28;20036;-73
2022/12/01 11:32:30;;;;;;;1.40;0.30;;;;;;;8.55;78.06;100795.53;5090733;28;20031;-73
2022/12/01 11:35:00;;;;;;;0.52;0.20;;;;;;;8.58;78.41;100813.47;5094579;28;20134;-73
2022/12/01 11:37:37;;;;;;;1.13;0.20;;;;;;;8.60;77.93;100810.75;5092923;28;20031;-73
2022/12/01 11:40:26;;;;;;;3.00;0.20;;;;;;;8.63;77.70;100818.31;5089054;28;20028;-73
2022/12/01 11:42:54;;;;;;;0.30;0.10;;;;;;;8.62;77.67;100812.28;5087757;28;20454;-73
2022/12/01 11:45:20;;;;;;;0.50;0.20;;;;;;;8.59;77.38;100811.72;5091351;28;20110;-73
2022/12/01 11:48:11;;;;;;;0.40;0.10;;;;;;;8.55;77.09;100800.72;5093180;28;20539;-73
2022/12/01 11:50:39;;;;;;;0.35;0.10;;;;;;;8.54;77.73;100796.50;5060128;28;20043;-74